sensor_id;sensor_type;location;lat;lon;timestamp;P1;durP1;ratioP1;P2;durP2;ratioP2
30247;SDS011;17063;50.892;4.702;2022-09-20T00:00:29;1.23;;;0.70;;
30247;SDS011;17063;50.892;4.702;2022-09-20T00:02:56;2.57;;;0.80;;
30247;SDS011;17063;50.892;4.702;2022-09-20T00:05:22;3.30;;;0.93;;
30247;SDS011;17063;50.892;4.702;2022-09-20T00:07:49;2.67;;;0.80;;
30247;SDS011;17063;50.892;4.702;2022-09-20T00:10:16;2.13;;;1.00;;
30247;SDS011;17063;50.892;4.702;2022-09-20T00:12:43;3.07;;;1.10;;
30247;SDS011;17063;50.892;4.702;2022-09-20T00:15:10;2.93;;;0.90;;
30247;SDS011;17063;50.892;4.702;2022-09-20T00:17:37;5.73;;;1.20;;
30247;SDS011;17063;50.892;4.702;2022-09-20T00:20:03;4.93;;;1.10;;
30247;SDS011;17063;50.892;4.702;2022-09-20T00:22:31;2.93;;;1.00;;
30247;SDS011;17063;50.892;4.702;2022-09-20T00:24:58;3.00;;;1.00;;
30247;SDS011;17063;50.892;4.702;2022-09-20T00:27:24;1.27;;;0.90;;
30247;SDS011;17063;50.892;4.702;2022-09-20T00:29:51;4.20;;;1.10;;
30247;SDS011;17063;50.892;4.702;2022-09-20T00:32:18;5.67;;;1.27;;
30247;SDS011;17063;50.892;4.702;2022-09-20T00:34:45;2.50;;;1.30;;
30247;SDS011;17063;50.892;4.702;2022-09-20T00:37:30;3.70;;;1.00;;
30247;SDS011;17063;50.892;4.702;2022-09-20T00:39:57;3.50;;;1.23;;
30247;SDS011;17063;50.892;4.702;2022-09-20T00:42:27;3.57;;;1.00;;
30247;SDS011;17063;50.892;4.702;2022-09-20T00:44:59;4.33;;;0.87;;
30247;SDS011;17063;50.892;4.702;2022-09-20T00:53:08;4.00;;;0.80;;
30247;SDS011;17063;50.892;4.702;2022-09-20T00:55:41;4.80;;;1.00;;
30247;SDS011;17063;50.892;4.702;2022-09-20T00:58:11;4.00;;;0.80;;
30247;SDS011;17063;50.892;4.702;2022-09-20T01:00:39;2.70;;;1.07;;
30247;SDS011;17063;50.892;4.702;2022-09-20T01:03:06;1.50;;;0.90;;
30247;SDS011;17063;50.892;4.702;2022-09-20T01:05:34;3.17;;;0.90;;
30247;SDS011;17063;50.892;4.702;2022-09-20T01:08:02;3.63;;;1.10;;
30247;SDS011;17063;50.892;4.702;2022-09-20T01:10:29;4.07;;;0.90;;
30247;SDS011;17063;50.892;4.702;2022-09-20T01:12:57;2.13;;;0.90;;
30247;SDS011;17063;50.892;4.702;2022-09-20T01:15:23;2.37;;;1.10;;
30247;SDS011;17063;50.892;4.702;2022-09-20T01:17:53;4.63;;;1.20;;
30247;SDS011;17063;50.892;4.702;2022-09-20T01:31:42;1.93;;;0.80;;
30247;SDS011;17063;50.892;4.702;2022-09-20T01:34:13;4.80;;;1.00;;
30247;SDS011;17063;50.892;4.702;2022-09-20T01:36:51;7.07;;;1.13;;
30247;SDS011;17063;50.892;4.702;2022-09-20T01:41:51;5.07;;;1.20;;
30247;SDS011;17063;50.892;4.702;2022-09-20T01:44:29;2.77;;;1.40;;
30247;SDS011;17063;50.892;4.702;2022-09-20T01:47:21;5.50;;;1.00;;
30247;SDS011;17063;50.892;4.702;2022-09-20T01:50:00;4.13;;;1.40;;
30247;SDS011;17063;50.892;4.702;2022-09-20T02:00:55;1.67;;;1.10;;
30247;SDS011;17063;50.892;4.702;2022-09-20T02:06:37;2.60;;;1.13;;
30247;SDS011;17063;50.892;4.702;2022-09-20T02:11:52;2.93;;;1.23;;
30247;SDS011;17063;50.892;4.702;2022-09-20T02:14:34;5.80;;;1.33;;
30247;SDS011;17063;50.892;4.702;2022-09-20T02:17:13;4.73;;;1.37;;
30247;SDS011;17063;50.892;4.702;2022-09-20T02:20:06;4.20;;;1.40;;
30247;SDS011;17063;50.892;4.702;2022-09-20T02:22:45;3.13;;;1.23;;
30247;SDS011;17063;50.892;4.702;2022-09-20T02:31:15;5.77;;;1.40;;
30247;SDS011;17063;50.892;4.702;2022-09-20T02:35:01;4.83;;;1.67;;
30247;SDS011;17063;50.892;4.702;2022-09-20T02:45:53;5.93;;;1.37;;
30247;SDS011;17063;50.892;4.702;2022-09-20T02:48:23;2.73;;;1.37;;
30247;SDS011;17063;50.892;4.702;2022-09-20T02:51:01;3.67;;;1.43;;
30247;SDS011;17063;50.892;4.702;2022-09-20T02:56:06;7.53;;;1.47;;
30247;SDS011;17063;50.892;4.702;2022-09-20T03:06:48;3.43;;;1.17;;
30247;SDS011;17063;50.892;4.702;2022-09-20T03:15:19;3.20;;;0.97;;
30247;SDS011;17063;50.892;4.702;2022-09-20T03:24:04;2.30;;;1.27;;
30247;SDS011;17063;50.892;4.702;2022-09-20T03:35:12;2.77;;;1.50;;
30247;SDS011;17063;50.892;4.702;2022-09-20T03:38:05;6.73;;;1.50;;
30247;SDS011;17063;50.892;4.702;2022-09-20T03:43:17;6.83;;;1.50;;
30247;SDS011;17063;50.892;4.702;2022-09-20T03:46:16;4.77;;;1.47;;
30247;SDS011;17063;50.892;4.702;2022-09-20T03:54:19;3.77;;;1.53;;
30247;SDS011;17063;50.892;4.702;2022-09-20T04:00:02;5.73;;;1.67;;
30247;SDS011;17063;50.892;4.702;2022-09-20T04:13:53;4.50;;;1.50;;
30247;SDS011;17063;50.892;4.702;2022-09-20T04:16:45;7.33;;;2.10;;
30247;SDS011;17063;50.892;4.702;2022-09-20T04:19:23;5.10;;;1.30;;
30247;SDS011;17063;50.892;4.702;2022-09-20T04:21:58;5.50;;;1.97;;
30247;SDS011;17063;50.892;4.702;2022-09-20T04:29:57;3.33;;;1.67;;
30247;SDS011;17063;50.892;4.702;2022-09-20T04:38:27;6.83;;;1.60;;
30247;SDS011;17063;50.892;4.702;2022-09-20T04:43:58;5.00;;;1.60;;
30247;SDS011;17063;50.892;4.702;2022-09-20T05:14:25;4.47;;;2.30;;
30247;SDS011;17063;50.892;4.702;2022-09-20T05:31:38;7.77;;;2.20;;
30247;SDS011;17063;50.892;4.702;2022-09-20T05:34:18;6.27;;;2.43;;
30247;SDS011;17063;50.892;4.702;2022-09-20T05:37:06;19.77;;;3.00;;
30247;SDS011;17063;50.892;4.702;2022-09-20T05:42:17;7.97;;;2.33;;
30247;SDS011;17063;50.892;4.702;2022-09-20T05:52:43;6.23;;;2.43;;
30247;SDS011;17063;50.892;4.702;2022-09-20T06:04:20;7.43;;;2.63;;
30247;SDS011;17063;50.892;4.702;2022-09-20T06:09:39;5.67;;;2.50;;
30247;SDS011;17063;50.892;4.702;2022-09-20T06:17:51;7.87;;;2.60;;
30247;SDS011;17063;50.892;4.702;2022-09-20T06:20:32;6.37;;;2.70;;
30247;SDS011;17063;50.892;4.702;2022-09-20T06:23:20;4.37;;;2.30;;
30247;SDS011;17063;50.892;4.702;2022-09-20T06:25:48;5.13;;;2.23;;
30247;SDS011;17063;50.892;4.702;2022-09-20T06:28:19;7.27;;;2.30;;
30247;SDS011;17063;50.892;4.702;2022-09-20T06:30:47;11.93;;;3.17;;
30247;SDS011;17063;50.892;4.702;2022-09-20T06:33:19;8.50;;;2.50;;
30247;SDS011;17063;50.892;4.702;2022-09-20T06:35:49;4.47;;;2.43;;
30247;SDS011;17063;50.892;4.702;2022-09-20T06:41:28;7.20;;;2.47;;
30247;SDS011;17063;50.892;4.702;2022-09-20T06:44:01;7.33;;;3.00;;
30247;SDS011;17063;50.892;4.702;2022-09-20T06:46:30;5.37;;;2.40;;
30247;SDS011;17063;50.892;4.702;2022-09-20T06:48:58;7.57;;;2.67;;
30247;SDS011;17063;50.892;4.702;2022-09-20T06:51:26;8.73;;;2.60;;
30247;SDS011;17063;50.892;4.702;2022-09-20T06:53:54;8.03;;;2.73;;
30247;SDS011;17063;50.892;4.702;2022-09-20T06:56:23;7.97;;;2.20;;
30247;SDS011;17063;50.892;4.702;2022-09-20T06:58:52;4.97;;;2.37;;
30247;SDS011;17063;50.892;4.702;2022-09-20T07:01:19;11.57;;;2.70;;
30247;SDS011;17063;50.892;4.702;2022-09-20T07:03:55;7.27;;;2.60;;
30247;SDS011;17063;50.892;4.702;2022-09-20T07:06:22;6.83;;;2.43;;
30247;SDS011;17063;50.892;4.702;2022-09-20T07:08:49;10.97;;;3.03;;
30247;SDS011;17063;50.892;4.702;2022-09-20T07:11:16;9.67;;;2.57;;
30247;SDS011;17063;50.892;4.702;2022-09-20T07:13:43;7.20;;;2.37;;
30247;SDS011;17063;50.892;4.702;2022-09-20T07:16:11;7.27;;;2.90;;
30247;SDS011;17063;50.892;4.702;2022-09-20T07:18:39;12.03;;;2.60;;
30247;SDS011;17063;50.892;4.702;2022-09-20T07:21:10;5.20;;;2.30;;
30247;SDS011;17063;50.892;4.702;2022-09-20T07:23:37;7.10;;;2.60;;
30247;SDS011;17063;50.892;4.702;2022-09-20T07:26:05;7.73;;;2.20;;
30247;SDS011;17063;50.892;4.702;2022-09-20T07:28:33;5.30;;;2.20;;
30247;SDS011;17063;50.892;4.702;2022-09-20T07:31:00;8.00;;;2.10;;
30247;SDS011;17063;50.892;4.702;2022-09-20T07:33:27;4.83;;;2.10;;
30247;SDS011;17063;50.892;4.702;2022-09-20T07:35:54;11.17;;;2.43;;
30247;SDS011;17063;50.892;4.702;2022-09-20T07:38:21;6.97;;;2.30;;
30247;SDS011;17063;50.892;4.702;2022-09-20T07:40:55;8.07;;;2.63;;
30247;SDS011;17063;50.892;4.702;2022-09-20T07:43:26;7.47;;;2.30;;
30247;SDS011;17063;50.892;4.702;2022-09-20T07:45:53;9.03;;;2.80;;
30247;SDS011;17063;50.892;4.702;2022-09-20T07:48:21;7.87;;;2.30;;
30247;SDS011;17063;50.892;4.702;2022-09-20T07:50:52;5.27;;;2.17;;
30247;SDS011;17063;50.892;4.702;2022-09-20T07:53:19;4.87;;;1.93;;
30247;SDS011;17063;50.892;4.702;2022-09-20T07:55:58;6.97;;;2.13;;
30247;SDS011;17063;50.892;4.702;2022-09-20T07:58:26;8.97;;;2.37;;
30247;SDS011;17063;50.892;4.702;2022-09-20T08:00:55;10.23;;;2.37;;
30247;SDS011;17063;50.892;4.702;2022-09-20T08:03:27;7.93;;;2.50;;
30247;SDS011;17063;50.892;4.702;2022-09-20T08:06:13;6.10;;;2.53;;
30247;SDS011;17063;50.892;4.702;2022-09-20T08:08:43;5.63;;;2.00;;
30247;SDS011;17063;50.892;4.702;2022-09-20T08:11:15;6.13;;;2.30;;
30247;SDS011;17063;50.892;4.702;2022-09-20T08:13:52;6.30;;;2.60;;
30247;SDS011;17063;50.892;4.702;2022-09-20T08:16:39;3.83;;;2.57;;
30247;SDS011;17063;50.892;4.702;2022-09-20T08:19:20;8.27;;;3.13;;
30247;SDS011;17063;50.892;4.702;2022-09-20T08:21:51;7.37;;;3.00;;
30247;SDS011;17063;50.892;4.702;2022-09-20T08:24:19;10.17;;;2.57;;
30247;SDS011;17063;50.892;4.702;2022-09-20T08:26:46;8.50;;;2.60;;
30247;SDS011;17063;50.892;4.702;2022-09-20T08:29:13;6.13;;;2.50;;
30247;SDS011;17063;50.892;4.702;2022-09-20T08:31:41;9.63;;;2.63;;
30247;SDS011;17063;50.892;4.702;2022-09-20T08:34:09;8.33;;;2.80;;
30247;SDS011;17063;50.892;4.702;2022-09-20T08:36:38;6.20;;;2.70;;
30247;SDS011;17063;50.892;4.702;2022-09-20T08:39:07;8.10;;;2.60;;
30247;SDS011;17063;50.892;4.702;2022-09-20T08:44:32;12.53;;;3.03;;
30247;SDS011;17063;50.892;4.702;2022-09-20T08:49:43;8.83;;;2.47;;
30247;SDS011;17063;50.892;4.702;2022-09-20T08:52:16;9.93;;;3.13;;
30247;SDS011;17063;50.892;4.702;2022-09-20T08:54:45;12.90;;;3.17;;
30247;SDS011;17063;50.892;4.702;2022-09-20T08:57:16;6.37;;;2.73;;
30247;SDS011;17063;50.892;4.702;2022-09-20T08:59:43;15.23;;;4.30;;
30247;SDS011;17063;50.892;4.702;2022-09-20T09:02:13;9.97;;;3.00;;
30247;SDS011;17063;50.892;4.702;2022-09-20T09:04:42;14.23;;;3.30;;
30247;SDS011;17063;50.892;4.702;2022-09-20T09:07:11;7.50;;;3.07;;
30247;SDS011;17063;50.892;4.702;2022-09-20T09:09:40;8.73;;;2.77;;
30247;SDS011;17063;50.892;4.702;2022-09-20T09:12:17;7.57;;;2.90;;
30247;SDS011;17063;50.892;4.702;2022-09-20T09:14:49;9.27;;;2.97;;
30247;SDS011;17063;50.892;4.702;2022-09-20T09:17:21;5.40;;;2.60;;
30247;SDS011;17063;50.892;4.702;2022-09-20T09:20:06;9.97;;;2.50;;
30247;SDS011;17063;50.892;4.702;2022-09-20T09:22:42;12.10;;;2.40;;
30247;SDS011;17063;50.892;4.702;2022-09-20T09:30:40;8.87;;;2.73;;
30247;SDS011;17063;50.892;4.702;2022-09-20T09:35:41;7.00;;;2.60;;
30247;SDS011;17063;50.892;4.702;2022-09-20T09:38:19;8.33;;;2.90;;
30247;SDS011;17063;50.892;4.702;2022-09-20T09:40:51;6.17;;;2.67;;
30247;SDS011;17063;50.892;4.702;2022-09-20T09:43:30;7.00;;;2.30;;
30247;SDS011;17063;50.892;4.702;2022-09-20T09:46:20;8.13;;;2.43;;
30247;SDS011;17063;50.892;4.702;2022-09-20T09:48:47;10.47;;;2.77;;
30247;SDS011;17063;50.892;4.702;2022-09-20T09:51:38;8.20;;;2.80;;
30247;SDS011;17063;50.892;4.702;2022-09-20T09:54:13;10.80;;;2.33;;
30247;SDS011;17063;50.892;4.702;2022-09-20T10:02:38;4.53;;;2.23;;
30247;SDS011;17063;50.892;4.702;2022-09-20T10:35:33;5.67;;;1.53;;
30247;SDS011;17063;50.892;4.702;2022-09-20T10:38:22;7.47;;;2.30;;
30247;SDS011;17063;50.892;4.702;2022-09-20T10:55:35;11.17;;;2.27;;
30247;SDS011;17063;50.892;4.702;2022-09-20T11:00:59;4.40;;;1.97;;
30247;SDS011;17063;50.892;4.702;2022-09-20T11:03:36;10.03;;;2.07;;
30247;SDS011;17063;50.892;4.702;2022-09-20T11:06:17;7.53;;;2.60;;
30247;SDS011;17063;50.892;4.702;2022-09-20T11:09:04;4.77;;;1.90;;
30247;SDS011;17063;50.892;4.702;2022-09-20T11:11:41;5.47;;;1.40;;
30247;SDS011;17063;50.892;4.702;2022-09-20T11:14:20;10.10;;;2.27;;
30247;SDS011;17063;50.892;4.702;2022-09-20T11:16:59;5.33;;;1.83;;
30247;SDS011;17063;50.892;4.702;2022-09-20T11:19:34;5.93;;;1.93;;
30247;SDS011;17063;50.892;4.702;2022-09-20T11:22:20;4.33;;;1.17;;
30247;SDS011;17063;50.892;4.702;2022-09-20T11:24:50;7.20;;;1.50;;
30247;SDS011;17063;50.892;4.702;2022-09-20T11:38:21;5.40;;;1.50;;
30247;SDS011;17063;50.892;4.702;2022-09-20T11:40:56;4.73;;;1.17;;
30247;SDS011;17063;50.892;4.702;2022-09-20T11:43:40;5.73;;;1.23;;
30247;SDS011;17063;50.892;4.702;2022-09-20T11:46:12;4.53;;;1.07;;
30247;SDS011;17063;50.892;4.702;2022-09-20T11:48:42;2.90;;;0.80;;
30247;SDS011;17063;50.892;4.702;2022-09-20T11:56:31;5.00;;;1.20;;
30247;SDS011;17063;50.892;4.702;2022-09-20T11:59:01;5.23;;;1.40;;
30247;SDS011;17063;50.892;4.702;2022-09-20T12:01:41;4.53;;;0.83;;
30247;SDS011;17063;50.892;4.702;2022-09-20T12:04:22;4.17;;;0.83;;
30247;SDS011;17063;50.892;4.702;2022-09-20T12:07:04;5.97;;;1.00;;
30247;SDS011;17063;50.892;4.702;2022-09-20T12:09:39;5.37;;;1.20;;
30247;SDS011;17063;50.892;4.702;2022-09-20T12:14:40;5.00;;;1.07;;
30247;SDS011;17063;50.892;4.702;2022-09-20T12:18:07;6.60;;;1.23;;
30247;SDS011;17063;50.892;4.702;2022-09-20T12:26:05;4.60;;;1.20;;
30247;SDS011;17063;50.892;4.702;2022-09-20T12:28:37;5.63;;;1.47;;
30247;SDS011;17063;50.892;4.702;2022-09-20T12:39:21;7.43;;;1.17;;
30247;SDS011;17063;50.892;4.702;2022-09-20T12:44:23;7.27;;;1.37;;
30247;SDS011;17063;50.892;4.702;2022-09-20T12:46:58;3.10;;;1.17;;
30247;SDS011;17063;50.892;4.702;2022-09-20T12:49:29;2.90;;;0.90;;
30247;SDS011;17063;50.892;4.702;2022-09-20T12:52:22;4.57;;;1.00;;
30247;SDS011;17063;50.892;4.702;2022-09-20T12:55:51;5.53;;;1.30;;
30247;SDS011;17063;50.892;4.702;2022-09-20T13:11:16;5.47;;;0.90;;
30247;SDS011;17063;50.892;4.702;2022-09-20T13:19:35;5.43;;;1.20;;
30247;SDS011;17063;50.892;4.702;2022-09-20T13:22:16;4.60;;;1.10;;
30247;SDS011;17063;50.892;4.702;2022-09-20T13:24:47;4.43;;;0.83;;
30247;SDS011;17063;50.892;4.702;2022-09-20T13:27:27;2.97;;;1.20;;
30247;SDS011;17063;50.892;4.702;2022-09-20T13:30:07;3.93;;;0.93;;
30247;SDS011;17063;50.892;4.702;2022-09-20T13:32:46;3.63;;;0.87;;
30247;SDS011;17063;50.892;4.702;2022-09-20T13:35:18;2.17;;;0.70;;
30247;SDS011;17063;50.892;4.702;2022-09-20T13:37:51;5.57;;;0.90;;
30247;SDS011;17063;50.892;4.702;2022-09-20T13:48:38;4.27;;;1.00;;
30247;SDS011;17063;50.892;4.702;2022-09-20T13:51:19;1.20;;;0.63;;
30247;SDS011;17063;50.892;4.702;2022-09-20T13:53:49;4.23;;;0.90;;
30247;SDS011;17063;50.892;4.702;2022-09-20T13:58:47;5.90;;;1.33;;
30247;SDS011;17063;50.892;4.702;2022-09-20T14:01:33;7.07;;;1.40;;
30247;SDS011;17063;50.892;4.702;2022-09-20T14:04:04;6.30;;;1.10;;
30247;SDS011;17063;50.892;4.702;2022-09-20T14:06:33;3.73;;;1.33;;
30247;SDS011;17063;50.892;4.702;2022-09-20T14:09:02;4.87;;;1.03;;
30247;SDS011;17063;50.892;4.702;2022-09-20T14:11:36;2.47;;;1.10;;
30247;SDS011;17063;50.892;4.702;2022-09-20T14:14:04;3.07;;;1.13;;
30247;SDS011;17063;50.892;4.702;2022-09-20T14:16:37;12.63;;;2.13;;
30247;SDS011;17063;50.892;4.702;2022-09-20T14:19:09;3.83;;;1.60;;
30247;SDS011;17063;50.892;4.702;2022-09-20T14:21:37;1.93;;;1.20;;
30247;SDS011;17063;50.892;4.702;2022-09-20T14:24:05;5.73;;;1.70;;
30247;SDS011;17063;50.892;4.702;2022-09-20T14:26:34;6.20;;;1.40;;
30247;SDS011;17063;50.892;4.702;2022-09-20T14:31:54;4.87;;;1.37;;
30247;SDS011;17063;50.892;4.702;2022-09-20T14:34:23;4.60;;;1.40;;
30247;SDS011;17063;50.892;4.702;2022-09-20T14:37:00;4.97;;;1.70;;
30247;SDS011;17063;50.892;4.702;2022-09-20T14:39:29;4.37;;;1.47;;
30247;SDS011;17063;50.892;4.702;2022-09-20T14:41:56;5.00;;;1.77;;
30247;SDS011;17063;50.892;4.702;2022-09-20T14:44:30;7.87;;;1.70;;
30247;SDS011;17063;50.892;4.702;2022-09-20T14:46:58;4.53;;;1.30;;
30247;SDS011;17063;50.892;4.702;2022-09-20T14:51:56;6.07;;;1.53;;
30247;SDS011;17063;50.892;4.702;2022-09-20T14:55:15;5.47;;;1.60;;
30247;SDS011;17063;50.892;4.702;2022-09-20T14:57:46;6.73;;;1.80;;
30247;SDS011;17063;50.892;4.702;2022-09-20T15:00:14;6.03;;;1.80;;
30247;SDS011;17063;50.892;4.702;2022-09-20T15:02:42;4.77;;;1.60;;
30247;SDS011;17063;50.892;4.702;2022-09-20T15:05:25;4.73;;;1.70;;
30247;SDS011;17063;50.892;4.702;2022-09-20T15:07:53;6.40;;;1.97;;
30247;SDS011;17063;50.892;4.702;2022-09-20T15:10:21;6.87;;;2.40;;
30247;SDS011;17063;50.892;4.702;2022-09-20T15:12:51;7.97;;;1.57;;
30247;SDS011;17063;50.892;4.702;2022-09-20T15:15:18;6.33;;;1.00;;
30247;SDS011;17063;50.892;4.702;2022-09-20T15:17:45;1.77;;;0.90;;
30247;SDS011;17063;50.892;4.702;2022-09-20T15:20:21;5.43;;;0.90;;
30247;SDS011;17063;50.892;4.702;2022-09-20T15:22:50;6.67;;;1.60;;
30247;SDS011;17063;50.892;4.702;2022-09-20T15:25:17;4.30;;;1.60;;
30247;SDS011;17063;50.892;4.702;2022-09-20T15:27:46;2.37;;;1.20;;
30247;SDS011;17063;50.892;4.702;2022-09-20T15:30:17;7.70;;;1.97;;
30247;SDS011;17063;50.892;4.702;2022-09-20T15:32:45;5.60;;;1.50;;
30247;SDS011;17063;50.892;4.702;2022-09-20T15:35:12;7.57;;;1.93;;
30247;SDS011;17063;50.892;4.702;2022-09-20T15:37:39;3.27;;;0.80;;
30247;SDS011;17063;50.892;4.702;2022-09-20T15:40:07;2.57;;;1.10;;
30247;SDS011;17063;50.892;4.702;2022-09-20T15:42:34;2.90;;;1.27;;
30247;SDS011;17063;50.892;4.702;2022-09-20T15:45:07;7.87;;;1.10;;
30247;SDS011;17063;50.892;4.702;2022-09-20T15:47:35;3.67;;;1.23;;
30247;SDS011;17063;50.892;4.702;2022-09-20T15:50:04;4.57;;;1.10;;
30247;SDS011;17063;50.892;4.702;2022-09-20T15:52:33;1.37;;;1.00;;
30247;SDS011;17063;50.892;4.702;2022-09-20T15:55:01;4.63;;;1.40;;
30247;SDS011;17063;50.892;4.702;2022-09-20T15:57:30;5.70;;;1.27;;
30247;SDS011;17063;50.892;4.702;2022-09-20T15:59:57;6.83;;;1.27;;
30247;SDS011;17063;50.892;4.702;2022-09-20T16:02:24;4.57;;;1.20;;
30247;SDS011;17063;50.892;4.702;2022-09-20T16:04:52;5.00;;;1.63;;
30247;SDS011;17063;50.892;4.702;2022-09-20T16:07:23;4.87;;;1.40;;
30247;SDS011;17063;50.892;4.702;2022-09-20T16:09:53;3.80;;;1.10;;
30247;SDS011;17063;50.892;4.702;2022-09-20T16:12:23;2.57;;;0.93;;
30247;SDS011;17063;50.892;4.702;2022-09-20T16:14:51;8.77;;;1.37;;
30247;SDS011;17063;50.892;4.702;2022-09-20T16:17:18;4.13;;;1.17;;
30247;SDS011;17063;50.892;4.702;2022-09-20T16:20:05;6.20;;;1.07;;
30247;SDS011;17063;50.892;4.702;2022-09-20T16:22:32;3.57;;;1.20;;
30247;SDS011;17063;50.892;4.702;2022-09-20T16:25:00;4.33;;;1.30;;
30247;SDS011;17063;50.892;4.702;2022-09-20T16:27:27;2.50;;;1.10;;
30247;SDS011;17063;50.892;4.702;2022-09-20T16:30:00;3.97;;;1.27;;
30247;SDS011;17063;50.892;4.702;2022-09-20T16:32:27;4.43;;;1.07;;
30247;SDS011;17063;50.892;4.702;2022-09-20T16:34:54;3.27;;;1.13;;
30247;SDS011;17063;50.892;4.702;2022-09-20T16:37:23;3.97;;;1.20;;
30247;SDS011;17063;50.892;4.702;2022-09-20T16:39:51;4.63;;;1.20;;
30247;SDS011;17063;50.892;4.702;2022-09-20T16:42:18;6.67;;;1.20;;
30247;SDS011;17063;50.892;4.702;2022-09-20T16:44:46;6.23;;;1.10;;
30247;SDS011;17063;50.892;4.702;2022-09-20T16:47:14;5.27;;;1.50;;
30247;SDS011;17063;50.892;4.702;2022-09-20T16:49:47;4.20;;;1.37;;
30247;SDS011;17063;50.892;4.702;2022-09-20T16:52:15;4.40;;;1.20;;
30247;SDS011;17063;50.892;4.702;2022-09-20T16:54:42;3.03;;;1.20;;
30247;SDS011;17063;50.892;4.702;2022-09-20T16:57:10;3.87;;;1.07;;
30247;SDS011;17063;50.892;4.702;2022-09-20T16:59:38;2.67;;;1.17;;
30247;SDS011;17063;50.892;4.702;2022-09-20T17:02:05;7.60;;;1.50;;
30247;SDS011;17063;50.892;4.702;2022-09-20T17:04:32;6.03;;;1.40;;
30247;SDS011;17063;50.892;4.702;2022-09-20T17:07:01;3.40;;;1.40;;
30247;SDS011;17063;50.892;4.702;2022-09-20T17:09:28;8.70;;;1.60;;
30247;SDS011;17063;50.892;4.702;2022-09-20T17:12:04;4.37;;;1.30;;
30247;SDS011;17063;50.892;4.702;2022-09-20T17:14:34;3.93;;;1.37;;
30247;SDS011;17063;50.892;4.702;2022-09-20T17:17:02;5.33;;;1.57;;
30247;SDS011;17063;50.892;4.702;2022-09-20T17:19:29;7.47;;;1.73;;
30247;SDS011;17063;50.892;4.702;2022-09-20T17:21:56;6.50;;;1.67;;
30247;SDS011;17063;50.892;4.702;2022-09-20T17:24:22;6.97;;;1.40;;
30247;SDS011;17063;50.892;4.702;2022-09-20T17:26:50;6.43;;;1.50;;
30247;SDS011;17063;50.892;4.702;2022-09-20T17:29:17;4.60;;;1.60;;
30247;SDS011;17063;50.892;4.702;2022-09-20T17:31:46;8.57;;;1.90;;
30247;SDS011;17063;50.892;4.702;2022-09-20T17:34:20;6.87;;;2.40;;
30247;SDS011;17063;50.892;4.702;2022-09-20T17:36:47;5.10;;;2.00;;
30247;SDS011;17063;50.892;4.702;2022-09-20T17:39:14;4.87;;;1.97;;
30247;SDS011;17063;50.892;4.702;2022-09-20T17:41:42;2.27;;;1.93;;
30247;SDS011;17063;50.892;4.702;2022-09-20T17:44:10;7.87;;;1.90;;
30247;SDS011;17063;50.892;4.702;2022-09-20T17:46:38;4.87;;;2.07;;
30247;SDS011;17063;50.892;4.702;2022-09-20T17:49:07;6.40;;;1.70;;
30247;SDS011;17063;50.892;4.702;2022-09-20T17:54:06;4.73;;;1.90;;
30247;SDS011;17063;50.892;4.702;2022-09-20T17:56:33;5.30;;;1.57;;
30247;SDS011;17063;50.892;4.702;2022-09-20T17:59:01;4.37;;;1.80;;
30247;SDS011;17063;50.892;4.702;2022-09-20T18:01:29;5.83;;;1.60;;
30247;SDS011;17063;50.892;4.702;2022-09-20T18:03:58;6.57;;;1.60;;
30247;SDS011;17063;50.892;4.702;2022-09-20T18:06:27;3.43;;;1.60;;
30247;SDS011;17063;50.892;4.702;2022-09-20T18:08:59;4.93;;;1.60;;
30247;SDS011;17063;50.892;4.702;2022-09-20T18:11:28;2.73;;;1.60;;
30247;SDS011;17063;50.892;4.702;2022-09-20T18:14:07;3.17;;;2.00;;
30247;SDS011;17063;50.892;4.702;2022-09-20T18:16:35;4.03;;;1.33;;
30247;SDS011;17063;50.892;4.702;2022-09-20T18:19:04;5.10;;;1.33;;
30247;SDS011;17063;50.892;4.702;2022-09-20T18:21:32;6.00;;;1.60;;
30247;SDS011;17063;50.892;4.702;2022-09-20T18:24:03;2.47;;;1.43;;
30247;SDS011;17063;50.892;4.702;2022-09-20T18:26:30;6.03;;;1.50;;
30247;SDS011;17063;50.892;4.702;2022-09-20T18:28:59;7.43;;;1.80;;
30247;SDS011;17063;50.892;4.702;2022-09-20T18:31:30;2.47;;;1.63;;
30247;SDS011;17063;50.892;4.702;2022-09-20T18:34:02;4.10;;;1.33;;
30247;SDS011;17063;50.892;4.702;2022-09-20T18:36:30;3.37;;;1.43;;
30247;SDS011;17063;50.892;4.702;2022-09-20T18:38:58;2.67;;;1.50;;
30247;SDS011;17063;50.892;4.702;2022-09-20T18:41:28;3.83;;;1.67;;
30247;SDS011;17063;50.892;4.702;2022-09-20T18:43:58;3.53;;;1.70;;
30247;SDS011;17063;50.892;4.702;2022-09-20T18:46:26;5.53;;;2.27;;
30247;SDS011;17063;50.892;4.702;2022-09-20T18:48:56;7.67;;;1.97;;
30247;SDS011;17063;50.892;4.702;2022-09-20T18:51:25;6.90;;;2.10;;
30247;SDS011;17063;50.892;4.702;2022-09-20T18:54:04;3.90;;;2.50;;
30247;SDS011;17063;50.892;4.702;2022-09-20T18:56:35;6.43;;;2.10;;
30247;SDS011;17063;50.892;4.702;2022-09-20T19:10:06;5.80;;;2.03;;
30247;SDS011;17063;50.892;4.702;2022-09-20T19:21:02;3.77;;;1.70;;
30247;SDS011;17063;50.892;4.702;2022-09-20T19:24:12;3.83;;;1.80;;
30247;SDS011;17063;50.892;4.702;2022-09-20T19:26:40;4.27;;;1.93;;
30247;SDS011;17063;50.892;4.702;2022-09-20T19:29:18;2.50;;;1.43;;
30247;SDS011;17063;50.892;4.702;2022-09-20T19:31:50;2.37;;;1.60;;
30247;SDS011;17063;50.892;4.702;2022-09-20T19:34:23;5.50;;;1.60;;
30247;SDS011;17063;50.892;4.702;2022-09-20T19:42:13;6.37;;;2.17;;
30247;SDS011;17063;50.892;4.702;2022-09-20T19:52:21;4.33;;;2.00;;
30247;SDS011;17063;50.892;4.702;2022-09-20T19:54:49;5.77;;;2.37;;
30247;SDS011;17063;50.892;4.702;2022-09-20T19:57:17;4.67;;;2.30;;
30247;SDS011;17063;50.892;4.702;2022-09-20T19:59:46;5.70;;;3.00;;
30247;SDS011;17063;50.892;4.702;2022-09-20T20:02:14;4.37;;;2.83;;
30247;SDS011;17063;50.892;4.702;2022-09-20T20:04:42;7.90;;;2.97;;
30247;SDS011;17063;50.892;4.702;2022-09-20T20:12:30;6.33;;;3.07;;
30247;SDS011;17063;50.892;4.702;2022-09-20T20:20:42;5.73;;;2.87;;
30247;SDS011;17063;50.892;4.702;2022-09-20T20:23:17;8.63;;;3.00;;
30247;SDS011;17063;50.892;4.702;2022-09-20T20:25:51;5.93;;;3.00;;
30247;SDS011;17063;50.892;4.702;2022-09-20T20:28:25;5.33;;;2.67;;
30247;SDS011;17063;50.892;4.702;2022-09-20T20:30:52;4.80;;;2.47;;
30247;SDS011;17063;50.892;4.702;2022-09-20T20:33:25;6.67;;;3.07;;
30247;SDS011;17063;50.892;4.702;2022-09-20T20:35:52;10.20;;;4.37;;
30247;SDS011;17063;50.892;4.702;2022-09-20T20:38:23;7.80;;;3.20;;
30247;SDS011;17063;50.892;4.702;2022-09-20T20:40:58;7.17;;;2.57;;
30247;SDS011;17063;50.892;4.702;2022-09-20T20:43:31;4.60;;;2.80;;
30247;SDS011;17063;50.892;4.702;2022-09-20T20:46:00;4.80;;;3.10;;
30247;SDS011;17063;50.892;4.702;2022-09-20T20:48:27;7.93;;;3.50;;
30247;SDS011;17063;50.892;4.702;2022-09-20T20:51:28;8.50;;;4.07;;
30247;SDS011;17063;50.892;4.702;2022-09-20T20:53:49;4.97;;;3.30;;
30247;SDS011;17063;50.892;4.702;2022-09-20T20:56:25;6.00;;;2.80;;
30247;SDS011;17063;50.892;4.702;2022-09-20T20:58:54;7.60;;;2.80;;
30247;SDS011;17063;50.892;4.702;2022-09-20T21:01:27;3.77;;;2.13;;
30247;SDS011;17063;50.892;4.702;2022-09-20T21:03:59;11.60;;;3.00;;
30247;SDS011;17063;50.892;4.702;2022-09-20T21:06:30;4.13;;;2.60;;
30247;SDS011;17063;50.892;4.702;2022-09-20T21:08:58;6.80;;;2.20;;
30247;SDS011;17063;50.892;4.702;2022-09-20T21:11:33;4.17;;;2.43;;
30247;SDS011;17063;50.892;4.702;2022-09-20T21:14:02;7.03;;;2.23;;
30247;SDS011;17063;50.892;4.702;2022-09-20T21:16:32;4.70;;;2.67;;
30247;SDS011;17063;50.892;4.702;2022-09-20T21:19:01;3.87;;;2.30;;
30247;SDS011;17063;50.892;4.702;2022-09-20T21:21:30;5.83;;;2.90;;
30247;SDS011;17063;50.892;4.702;2022-09-20T21:24:01;8.40;;;2.50;;
30247;SDS011;17063;50.892;4.702;2022-09-20T21:26:30;4.07;;;2.37;;
30247;SDS011;17063;50.892;4.702;2022-09-20T21:28:58;5.73;;;2.60;;
30247;SDS011;17063;50.892;4.702;2022-09-20T21:31:46;8.87;;;2.43;;